Guernsey, Ohio
Current Conditions -  °F | °C
As of 9:05 AM on Tuesday 21 Oct 2014 (Local Time) from KPHD Reporting Station
Haze Haze  
Wind Chill: 53°   Ceiling: 1400
Heat Index: 53°   Visibility: 4mi
Dew Point: 49°   Wind: 8mph
Humidity: 86%   Direction: 330°NNW
Pressure: 29.9"   Gusts: NA
Location:  40.1705°N, 81.5444°W
Report Text: KPHD 211305Z AUTO 33007KT 4SM BR SCT010 BKN014 OVC019 12/09 A2990 RMK AO2 T01170094
Loading
Personal Weather Stations






























Interactive Weather Map
Tropical Storm Tracking
New forecast layout! Learn more

10-Day Weather Forecast

Advertisements
Track Severe Weather on mobile